createdAt,value
2019-05-30T00:01:46.114Z,3.17
2019-05-30T00:04:18.804Z,2.97
2019-05-30T00:06:48.972Z,2.53
2019-05-30T00:09:18.964Z,2.67
2019-05-30T00:11:48.975Z,2.50
2019-05-30T00:14:19.063Z,2.73
2019-05-30T00:16:49.124Z,3.20
2019-05-30T00:19:19.517Z,2.83
2019-05-30T00:21:52.301Z,3.00
2019-05-30T00:24:22.297Z,3.33
2019-05-30T00:26:53.493Z,3.30
2019-05-30T00:29:25.621Z,2.83
2019-05-30T00:31:55.709Z,3.40
2019-05-30T00:34:25.831Z,2.90
2019-05-30T00:36:59.749Z,3.07
2019-05-30T00:39:29.881Z,2.80
2019-05-30T00:42:00.075Z,2.93
2019-05-30T00:44:30.131Z,2.73
2019-05-30T00:47:00.642Z,2.90
2019-05-30T00:49:34.049Z,2.90
2019-05-30T00:52:05.089Z,3.07
2019-05-30T00:54:38.088Z,3.23
2019-05-30T00:57:08.436Z,3.23
2019-05-30T00:59:41.341Z,3.10
2019-05-30T01:02:11.494Z,3.30
2019-05-30T01:04:42.804Z,3.33
2019-05-30T01:07:12.794Z,2.83
2019-05-30T01:09:42.881Z,3.27
2019-05-30T01:12:12.957Z,2.80
2019-05-30T01:14:43.302Z,2.73
2019-05-30T01:17:13.305Z,3.00
2019-05-30T01:19:43.888Z,3.30
2019-05-30T01:22:13.984Z,2.90
2019-05-30T01:24:43.974Z,2.80
2019-05-30T01:27:13.989Z,3.20
2019-05-30T01:29:44.645Z,2.70
2019-05-30T01:32:30.075Z,3.30
2019-05-30T01:35:01.915Z,3.10
2019-05-30T01:37:33.457Z,2.63
2019-05-30T01:40:04.344Z,3.33
2019-05-30T01:42:34.428Z,3.27
2019-05-30T01:45:09.227Z,2.83
2019-05-30T01:47:39.393Z,3.40
2019-05-30T01:50:12.628Z,2.90
2019-05-30T01:52:42.645Z,2.37
2019-05-30T01:55:12.966Z,3.03
2019-05-30T01:57:43.064Z,3.10
2019-05-30T02:00:20.787Z,2.87
2019-05-30T02:02:48.771Z,3.00
2019-05-30T02:05:19.333Z,2.67
2019-05-30T02:07:50.381Z,3.30
2019-05-30T02:10:23.487Z,3.10
2019-05-30T02:12:53.500Z,2.83
2019-05-30T02:15:25.255Z,2.90
2019-05-30T02:17:55.353Z,2.97
2019-05-30T02:20:25.585Z,2.77
2019-05-30T02:22:59.616Z,2.60
2019-05-30T02:25:29.691Z,2.83
2019-05-30T02:28:00.014Z,2.67
2019-05-30T02:30:30.303Z,2.87
2019-05-30T02:33:00.695Z,2.60
2019-05-30T02:35:31.112Z,2.80
2019-05-30T02:38:02.918Z,2.57
2019-05-30T02:40:33.241Z,2.67
2019-05-30T02:43:04.099Z,2.50
2019-05-30T02:45:34.975Z,2.60
2019-05-30T02:48:05.458Z,2.50
2019-05-30T02:50:36.039Z,2.53
2019-05-30T02:53:10.919Z,2.60
2019-05-30T02:55:41.112Z,2.30
2019-05-30T02:58:12.913Z,2.20
2019-05-30T03:00:44.417Z,2.50
2019-05-30T03:03:15.035Z,2.23
2019-05-30T03:05:45.129Z,2.30
2019-05-30T03:08:15.130Z,1.90
2019-05-30T03:10:45.329Z,2.47
2019-05-30T03:13:15.647Z,2.00
2019-05-30T03:15:45.777Z,2.30
2019-05-30T03:18:15.865Z,1.77
2019-05-30T03:20:50.136Z,2.00
2019-05-30T03:23:20.905Z,1.70
2019-05-30T03:25:50.997Z,2.00
2019-05-30T03:28:21.867Z,1.67
2019-05-30T03:30:52.500Z,1.70
2019-05-30T03:33:38.027Z,2.00
2019-05-30T03:35:54.424Z,1.70
2019-05-30T03:38:26.400Z,1.60
2019-05-30T03:40:56.759Z,1.80
2019-05-30T03:43:26.948Z,1.40
2019-05-30T03:45:57.884Z,2.07
2019-05-30T03:48:29.845Z,1.20
2019-05-30T03:51:04.067Z,1.30
2019-05-30T03:53:34.745Z,1.30
2019-05-30T03:56:09.218Z,1.43
2019-05-30T03:58:59.987Z,1.13
2019-05-30T04:01:41.709Z,1.20
2019-05-30T04:04:29.597Z,1.30
2019-05-30T04:07:02.672Z,1.50
2019-05-30T04:09:34.954Z,1.30
2019-05-30T04:12:14.940Z,1.83
2019-05-30T04:14:48.495Z,1.30
2019-05-30T04:17:19.926Z,1.50
2019-05-30T04:19:50.183Z,1.70
2019-05-30T04:22:20.194Z,1.40
2019-05-30T04:24:50.253Z,1.30
2019-05-30T04:27:20.298Z,1.30
2019-05-30T04:29:50.299Z,1.43
2019-05-30T04:32:20.323Z,1.20
2019-05-30T04:34:50.310Z,1.60
2019-05-30T04:37:20.332Z,1.47
2019-05-30T04:39:51.760Z,1.20
2019-05-30T04:42:21.768Z,1.23
2019-05-30T04:44:51.759Z,1.10
2019-05-30T04:47:21.770Z,1.43
2019-05-30T04:49:51.781Z,1.57
2019-05-30T04:52:24.727Z,1.57
2019-05-30T04:54:53.533Z,1.37
2019-05-30T04:57:26.972Z,1.30
2019-05-30T04:59:55.708Z,1.50
2019-05-30T05:02:25.743Z,1.90
2019-05-30T05:04:56.294Z,1.40
2019-05-30T05:07:26.892Z,1.60
2019-05-30T05:09:56.960Z,1.57
2019-05-30T05:12:26.967Z,1.43
2019-05-30T05:14:56.958Z,1.50
2019-05-30T05:17:26.988Z,1.20
2019-05-30T05:19:56.982Z,1.60
2019-05-30T05:22:27.003Z,1.47
2019-05-30T05:24:56.991Z,1.63
2019-05-30T05:27:27.180Z,2.07
2019-05-30T05:30:00.471Z,1.57
2019-05-30T05:32:30.634Z,1.73
2019-05-30T05:35:00.976Z,1.70
2019-05-30T05:37:30.992Z,1.60
2019-05-30T05:40:00.990Z,1.53
2019-05-30T05:42:31.088Z,1.70
2019-05-30T05:45:01.077Z,1.70
2019-05-30T05:47:31.176Z,1.83
2019-05-30T05:50:01.175Z,2.20
2019-05-30T05:52:31.194Z,2.13
2019-05-30T05:55:01.252Z,2.00
2019-05-30T05:57:31.345Z,2.00
2019-05-30T06:00:01.363Z,2.07
2019-05-30T06:02:31.424Z,2.10
2019-05-30T06:05:01.444Z,1.93
2019-05-30T06:07:31.452Z,2.17
2019-05-30T06:10:02.280Z,2.50
2019-05-30T06:12:32.417Z,2.17
2019-05-30T06:15:02.759Z,2.10
2019-05-30T06:17:33.049Z,2.23
2019-05-30T06:20:06.602Z,2.53
2019-05-30T06:22:36.698Z,2.17
2019-05-30T06:25:07.844Z,2.20
2019-05-30T06:27:38.144Z,1.90
2019-05-30T06:30:08.980Z,2.23
2019-05-30T06:32:42.013Z,2.10
2019-05-30T06:35:12.453Z,2.23
2019-05-30T06:37:45.151Z,1.90
2019-05-30T06:40:15.731Z,2.13
2019-05-30T06:42:46.386Z,2.30
2019-05-30T06:45:16.716Z,1.90
2019-05-30T06:47:47.882Z,2.00
2019-05-30T06:50:18.331Z,1.70
2019-05-30T06:52:49.570Z,1.70
2019-05-30T06:55:20.997Z,1.70
2019-05-30T06:57:51.233Z,1.83
2019-05-30T07:00:22.003Z,2.90
2019-05-30T07:02:52.029Z,1.90
2019-05-30T07:05:25.471Z,2.10
2019-05-30T07:07:54.323Z,2.13
2019-05-30T07:10:24.931Z,1.90
2019-05-30T07:12:54.999Z,2.10
2019-05-30T07:15:25.155Z,2.10
2019-05-30T07:17:55.327Z,1.90
2019-05-30T07:20:27.496Z,2.37
2019-05-30T07:22:57.469Z,2.33
2019-05-30T07:25:27.916Z,2.20
2019-05-30T07:27:57.999Z,1.60
2019-05-30T07:30:28.347Z,2.00
2019-05-30T07:32:59.086Z,1.90
2019-05-30T07:35:32.042Z,1.80
2019-05-30T07:38:04.664Z,2.10
2019-05-30T07:40:36.549Z,2.50
2019-05-30T07:43:06.731Z,2.10
2019-05-30T07:45:36.753Z,2.10
2019-05-30T07:48:06.893Z,2.40
2019-05-30T07:50:36.980Z,1.90
2019-05-30T07:53:07.072Z,1.80
2019-05-30T07:55:37.328Z,1.90
2019-05-30T07:58:07.592Z,1.70
2019-05-30T08:00:37.774Z,2.20
2019-05-30T08:03:07.766Z,1.97
2019-05-30T08:05:38.924Z,2.10
2019-05-30T08:08:10.119Z,1.67
2019-05-30T08:10:40.202Z,1.70
2019-05-30T08:13:10.233Z,1.85
2019-05-30T08:15:43.925Z,1.60
2019-05-30T08:18:12.051Z,2.00
2019-05-30T08:20:42.066Z,2.17
2019-05-30T08:23:13.615Z,1.90
2019-05-30T08:25:43.628Z,2.10
2019-05-30T08:28:15.184Z,2.00
2019-05-30T08:30:45.277Z,1.80
2019-05-30T08:33:15.371Z,1.90
2019-05-30T08:35:49.864Z,1.98
2019-05-30T08:38:17.420Z,1.85
2019-05-30T08:40:48.122Z,2.00
2019-05-30T08:43:19.759Z,1.90
2019-05-30T08:45:49.842Z,1.70
2019-05-30T08:48:19.870Z,1.90
2019-05-30T08:50:50.956Z,1.90
2019-05-30T08:53:20.979Z,1.72
2019-05-30T08:55:51.079Z,1.85
2019-05-30T08:58:21.108Z,2.17
2019-05-30T09:00:51.212Z,1.73
2019-05-30T09:03:21.204Z,2.02
2019-05-30T09:06:03.434Z,2.22
2019-05-30T09:08:27.299Z,1.70
2019-05-30T09:10:57.302Z,2.05
2019-05-30T09:13:27.332Z,2.37
2019-05-30T09:15:57.401Z,2.00
2019-05-30T09:18:27.558Z,1.90
2019-05-30T09:20:57.560Z,1.92
2019-05-30T09:23:27.655Z,1.75
2019-05-30T09:26:03.098Z,2.22
2019-05-30T09:28:40.757Z,2.50
2019-05-30T09:31:11.889Z,2.27
2019-05-30T09:33:44.677Z,2.00
2019-05-30T09:36:14.257Z,2.12
2019-05-30T09:38:45.466Z,1.98
2019-05-30T09:41:15.702Z,2.20
2019-05-30T09:43:46.411Z,2.15
2019-05-30T09:46:18.415Z,2.22
2019-05-30T09:48:48.751Z,2.52
2019-05-30T09:51:18.842Z,2.00
2019-05-30T09:53:48.921Z,2.12
2019-05-30T09:56:20.491Z,2.67
2019-05-30T09:58:51.779Z,1.72
2019-05-30T10:01:22.130Z,2.30
2019-05-30T10:03:52.375Z,1.70
2019-05-30T10:06:29.656Z,2.02
2019-05-30T10:08:54.501Z,1.82
2019-05-30T10:11:24.521Z,2.02
2019-05-30T10:13:58.783Z,1.95
2019-05-30T10:16:28.864Z,2.35
2019-05-30T10:18:58.874Z,2.47
2019-05-30T10:21:28.980Z,2.20
2019-05-30T10:23:58.983Z,2.27
2019-05-30T10:26:28.988Z,2.30
2019-05-30T10:29:01.255Z,2.50
2019-05-30T10:31:31.356Z,2.30
2019-05-30T10:34:01.367Z,2.80
2019-05-30T10:36:43.392Z,2.10
2019-05-30T10:39:05.652Z,1.98
2019-05-30T10:41:36.655Z,2.20
2019-05-30T10:44:06.797Z,2.15
2019-05-30T10:46:36.881Z,2.60
2019-05-30T10:49:13.199Z,2.22
2019-05-30T10:51:43.218Z,2.70
2019-05-30T10:54:13.215Z,2.25
2019-05-30T10:56:43.412Z,2.25
2019-05-30T10:59:15.556Z,2.55
2019-05-30T11:01:46.733Z,2.33
2019-05-30T11:04:17.347Z,2.45
2019-05-30T11:07:11.435Z,2.27
2019-05-30T11:09:41.477Z,3.60
2019-05-30T11:12:11.534Z,2.83
2019-05-30T11:14:41.607Z,2.15
2019-05-30T11:17:11.763Z,3.08
2019-05-30T11:19:41.839Z,2.40
2019-05-30T11:22:11.863Z,2.27
2019-05-30T11:24:41.845Z,2.17
2019-05-30T11:27:14.679Z,2.12
2019-05-30T11:29:44.691Z,1.92
2019-05-30T11:32:14.707Z,2.30
2019-05-30T11:34:44.726Z,2.10
2019-05-30T11:37:18.721Z,2.47
2019-05-30T11:39:46.541Z,2.05
2019-05-30T11:42:16.561Z,3.10
2019-05-30T11:44:46.637Z,2.72
2019-05-30T11:47:16.773Z,2.50
2019-05-30T11:49:46.903Z,2.27
2019-05-30T11:52:16.918Z,2.50
2019-05-30T11:54:46.947Z,2.12
2019-05-30T11:57:18.563Z,2.05
2019-05-30T11:59:50.070Z,2.25
2019-05-30T12:02:20.278Z,2.25
2019-05-30T12:04:50.554Z,1.95
2019-05-30T12:07:35.462Z,2.30
2019-05-30T12:09:52.916Z,2.00
2019-05-30T12:12:22.936Z,2.27
2019-05-30T12:14:53.307Z,2.20
2019-05-30T12:17:24.501Z,1.90
2019-05-30T12:19:56.010Z,1.70
2019-05-30T12:22:26.783Z,2.33
2019-05-30T12:25:00.232Z,2.00
2019-05-30T12:27:30.792Z,1.92
2019-05-30T12:30:00.775Z,1.82
2019-05-30T12:32:31.298Z,1.90
2019-05-30T12:35:02.926Z,1.90
2019-05-30T12:37:33.020Z,1.90
2019-05-30T12:40:03.398Z,1.80
2019-05-30T12:42:38.309Z,1.92
2019-05-30T12:45:10.569Z,2.10
2019-05-30T12:47:40.638Z,1.95
2019-05-30T12:50:12.216Z,1.98
2019-05-30T12:52:43.919Z,1.98
2019-05-30T12:55:14.675Z,1.80
2019-05-30T12:57:44.695Z,1.87
2019-05-30T13:00:24.156Z,2.08
2019-05-30T13:02:54.662Z,2.27
2019-05-30T13:05:24.891Z,2.12
2019-05-30T13:08:13.053Z,1.90
2019-05-30T13:10:26.948Z,1.80
2019-05-30T13:12:57.564Z,1.65
2019-05-30T13:15:27.797Z,1.87
2019-05-30T13:17:58.838Z,1.40
2019-05-30T13:20:30.297Z,1.75
2019-05-30T13:23:00.591Z,1.22
2019-05-30T13:25:31.097Z,1.50
2019-05-30T13:28:04.759Z,1.22
2019-05-30T13:30:33.237Z,1.50
2019-05-30T13:33:04.834Z,1.70
2019-05-30T13:35:35.162Z,1.40
2019-05-30T13:38:05.403Z,1.27
2019-05-30T13:40:35.498Z,1.30
2019-05-30T13:43:06.033Z,1.20
2019-05-30T13:45:37.323Z,1.10
2019-05-30T13:48:08.544Z,1.00
2019-05-30T13:50:40.453Z,1.22
2019-05-30T13:53:10.615Z,1.20
2019-05-30T13:55:40.614Z,1.45
2019-05-30T13:58:10.706Z,1.40
2019-05-30T14:00:40.838Z,1.30
2019-05-30T14:03:13.024Z,1.20
2019-05-30T14:05:42.763Z,1.15
2019-05-30T14:08:16.442Z,1.20
2019-05-30T14:10:44.573Z,1.12
2019-05-30T14:13:14.598Z,1.15
2019-05-30T14:15:44.622Z,1.52
2019-05-30T14:18:14.674Z,1.27
2019-05-30T14:20:44.766Z,1.00
2019-05-30T14:23:14.844Z,1.27
2019-05-30T14:25:44.860Z,1.30
2019-05-30T14:28:17.816Z,1.35
2019-05-30T14:30:47.820Z,1.47
2019-05-30T14:33:17.834Z,1.20
2019-05-30T14:35:47.993Z,1.32
2019-05-30T14:38:19.053Z,1.40
2019-05-30T14:40:53.445Z,1.32
2019-05-30T14:43:25.082Z,1.40
2019-05-30T14:45:55.108Z,1.40
2019-05-30T14:48:25.127Z,1.60
2019-05-30T14:50:55.122Z,2.00
2019-05-30T14:53:25.136Z,2.37
2019-05-30T14:55:55.228Z,1.95
2019-05-30T14:58:25.224Z,1.20
2019-05-30T15:00:55.314Z,1.10
2019-05-30T15:03:25.416Z,1.92
2019-05-30T15:05:57.074Z,1.50
2019-05-30T15:08:27.081Z,1.65
2019-05-30T15:10:57.103Z,1.35
2019-05-30T15:13:27.103Z,1.65
2019-05-30T15:15:57.338Z,1.25
2019-05-30T15:18:28.286Z,1.67
2019-05-30T15:20:58.300Z,1.60
2019-05-30T15:23:28.302Z,1.35
2019-05-30T15:25:58.317Z,1.47
2019-05-30T15:28:28.321Z,1.80
2019-05-30T15:30:58.359Z,1.32
2019-05-30T15:33:28.375Z,1.60
2019-05-30T15:35:58.369Z,1.60
2019-05-30T15:38:28.552Z,1.80
2019-05-30T15:40:58.553Z,2.15
2019-05-30T15:43:28.895Z,2.90
2019-05-30T15:45:58.880Z,2.70
2019-05-30T15:48:28.920Z,2.85
2019-05-30T15:50:58.907Z,2.80
2019-05-30T15:53:28.959Z,2.80
2019-05-30T15:55:58.980Z,3.00
2019-05-30T15:58:32.729Z,3.20
2019-05-30T16:01:02.666Z,3.42
2019-05-30T16:03:32.671Z,3.60
2019-05-30T16:06:02.763Z,3.58
2019-05-30T16:08:32.768Z,3.10
2019-05-30T16:11:02.782Z,3.70
2019-05-30T16:13:34.314Z,3.50
2019-05-30T16:16:04.675Z,3.90
2019-05-30T16:18:34.670Z,4.78
2019-05-30T16:21:04.999Z,3.90
2019-05-30T16:23:35.118Z,4.30
2019-05-30T16:26:05.476Z,3.90
2019-05-30T16:28:35.670Z,3.90
2019-05-30T16:31:05.836Z,4.40
2019-05-30T16:33:35.926Z,4.80
2019-05-30T16:36:06.069Z,5.53
2019-05-30T16:38:36.116Z,6.35
2019-05-30T16:41:07.277Z,6.60
2019-05-30T16:43:37.569Z,7.03
2019-05-30T16:46:10.774Z,6.97
2019-05-30T16:48:41.934Z,8.00
2019-05-30T16:51:12.021Z,9.05
2019-05-30T16:53:42.107Z,9.00
2019-05-30T16:56:15.189Z,8.18
2019-05-30T16:58:45.353Z,8.38
2019-05-30T17:01:15.779Z,8.25
2019-05-30T17:03:47.028Z,9.23
2019-05-30T17:06:18.066Z,8.58
2019-05-30T17:08:51.442Z,8.00
2019-05-30T17:11:21.732Z,8.60
2019-05-30T17:13:51.794Z,7.80
2019-05-30T17:16:22.141Z,7.72
2019-05-30T17:18:52.196Z,6.85
2019-05-30T17:21:22.698Z,7.90
2019-05-30T17:23:52.891Z,7.30
2019-05-30T17:26:25.331Z,6.95
2019-05-30T17:28:59.894Z,6.87
2019-05-30T17:31:30.024Z,6.50
2019-05-30T17:34:00.188Z,6.75
2019-05-30T17:36:30.223Z,6.90
2019-05-30T17:39:03.447Z,7.30
2019-05-30T17:41:36.164Z,6.72
2019-05-30T17:44:06.252Z,6.20
2019-05-30T17:46:36.402Z,6.85
2019-05-30T17:49:06.493Z,7.37
2019-05-30T17:51:36.629Z,6.40
2019-05-30T17:54:06.862Z,6.97
2019-05-30T17:56:36.864Z,6.42
2019-05-30T17:59:06.893Z,7.20
2019-05-30T18:01:36.971Z,7.28
2019-05-30T18:04:09.207Z,6.55
2019-05-30T18:06:39.379Z,6.85
2019-05-30T18:09:09.658Z,6.92
2019-05-30T18:11:39.686Z,6.65
2019-05-30T18:14:12.975Z,6.45
2019-05-30T18:16:43.079Z,7.15
2019-05-30T18:19:14.841Z,7.35
2019-05-30T18:21:44.990Z,6.67
2019-05-30T18:24:15.063Z,7.42
2019-05-30T18:26:45.075Z,6.65
2019-05-30T18:29:15.077Z,7.10
2019-05-30T18:31:45.118Z,6.58
2019-05-30T18:34:15.221Z,6.72
2019-05-30T18:36:45.395Z,7.15
2019-05-30T18:39:15.405Z,7.78
2019-05-30T18:41:47.209Z,6.83
2019-05-30T18:44:17.462Z,7.28
2019-05-30T18:46:47.647Z,7.67
2019-05-30T18:49:17.651Z,7.25
2019-05-30T18:51:47.688Z,7.78
2019-05-30T18:54:19.358Z,7.83
2019-05-30T18:56:51.714Z,7.67
2019-05-30T18:59:22.368Z,8.38
2019-05-30T19:01:54.995Z,9.53
2019-05-30T19:04:25.392Z,10.18
2019-05-30T19:06:58.569Z,10.60
2019-05-30T19:09:29.377Z,11.55
2019-05-30T19:11:59.610Z,10.88
2019-05-30T19:14:32.247Z,10.40
2019-05-30T19:17:01.349Z,11.10
2019-05-30T19:19:31.816Z,10.90
2019-05-30T19:22:02.018Z,12.50
2019-05-30T19:24:32.185Z,12.00
2019-05-30T19:27:05.318Z,13.48
2019-05-30T19:29:37.077Z,14.38
2019-05-30T19:32:07.432Z,13.78
2019-05-30T19:34:38.430Z,13.90
2019-05-30T19:37:11.506Z,12.13
2019-05-30T19:39:41.555Z,11.68
2019-05-30T19:42:11.645Z,11.50
2019-05-30T19:44:41.819Z,12.65
2019-05-30T19:47:13.703Z,12.18
2019-05-30T19:49:45.026Z,11.85
2019-05-30T19:52:15.446Z,10.72
2019-05-30T19:54:45.501Z,10.98
2019-05-30T19:57:15.599Z,9.93
2019-05-30T19:59:45.619Z,9.85
2019-05-30T20:02:15.657Z,10.20
2019-05-30T20:04:45.751Z,9.45
2019-05-30T20:07:16.050Z,8.75
2019-05-30T20:10:00.625Z,8.38
2019-05-30T20:12:21.266Z,9.20
2019-05-30T20:14:51.357Z,8.90
2019-05-30T20:17:24.124Z,9.67
2019-05-30T20:19:54.169Z,8.88
2019-05-30T20:22:24.236Z,9.30
2019-05-30T20:24:54.331Z,9.45
2019-05-30T20:27:25.865Z,9.18
2019-05-30T20:29:55.890Z,9.30
2019-05-30T20:32:25.904Z,9.50
2019-05-30T20:34:57.226Z,8.93
2019-05-30T20:37:28.191Z,9.37
2019-05-30T20:39:58.211Z,9.63
2019-05-30T20:42:28.236Z,8.90
2019-05-30T20:44:58.303Z,9.20
2019-05-30T20:47:28.323Z,9.87
2019-05-30T20:49:58.354Z,9.57
2019-05-30T20:52:31.866Z,9.43
2019-05-30T20:55:02.009Z,9.07
2019-05-30T20:57:32.257Z,9.43
2019-05-30T21:00:02.262Z,9.03
2019-05-30T21:02:36.911Z,9.83
2019-05-30T21:05:08.131Z,9.30
2019-05-30T21:07:39.829Z,9.23
2019-05-30T21:10:12.744Z,8.67
2019-05-30T21:12:47.198Z,8.93
2019-05-30T21:15:16.602Z,8.83
2019-05-30T21:17:47.961Z,8.43
2019-05-30T21:20:18.202Z,9.57
2019-05-30T21:22:49.576Z,8.63
2019-05-30T21:25:20.742Z,8.77
2019-05-30T21:27:52.035Z,8.90
2019-05-30T21:30:22.126Z,8.77
2019-05-30T21:32:52.392Z,9.10
2019-05-30T21:35:22.713Z,8.83
2019-05-30T21:37:52.870Z,9.23
2019-05-30T21:40:22.936Z,8.90
2019-05-30T21:43:05.146Z,8.93
2019-05-30T21:45:24.717Z,8.57
2019-05-30T21:47:56.369Z,8.33
2019-05-30T21:50:26.356Z,8.73
2019-05-30T21:52:56.372Z,8.03
2019-05-30T21:55:26.387Z,8.47
2019-05-30T21:57:59.460Z,9.67
2019-05-30T22:00:55.051Z,8.50
2019-05-30T22:03:26.837Z,9.20
2019-05-30T22:05:57.293Z,9.10
2019-05-30T22:08:27.404Z,8.87
2019-05-30T22:10:57.533Z,9.07
2019-05-30T22:13:31.972Z,8.33
2019-05-30T22:16:04.074Z,8.70
2019-05-30T22:18:34.084Z,8.80
2019-05-30T22:21:05.381Z,8.70
2019-05-30T22:23:35.471Z,9.20
2019-05-30T22:26:05.491Z,9.90
2019-05-30T22:28:35.878Z,9.10
2019-05-30T22:31:05.973Z,9.43
2019-05-30T22:33:37.682Z,9.90
2019-05-30T22:36:08.937Z,8.73
2019-05-30T22:38:38.961Z,9.43
2019-05-30T22:41:12.269Z,8.93
2019-05-30T22:43:46.281Z,9.23
2019-05-30T22:46:16.511Z,10.50
2019-05-30T22:48:46.657Z,10.10
2019-05-30T22:51:17.274Z,10.80
2019-05-30T22:53:48.911Z,10.33
2019-05-30T22:56:19.008Z,10.30
2019-05-30T22:58:50.213Z,10.17
2019-05-30T23:01:20.546Z,10.40
2019-05-30T23:03:52.205Z,9.40
2019-05-30T23:06:22.366Z,10.03
2019-05-30T23:08:55.225Z,9.43
2019-05-30T23:11:25.664Z,9.43
2019-05-30T23:13:56.226Z,11.10
2019-05-30T23:16:26.566Z,10.00
2019-05-30T23:18:58.201Z,11.00
2019-05-30T23:21:28.232Z,11.10
2019-05-30T23:23:58.251Z,11.17
2019-05-30T23:26:28.278Z,11.87
2019-05-30T23:28:58.286Z,11.93
2019-05-30T23:31:28.388Z,11.40
2019-05-30T23:34:01.019Z,11.23
2019-05-30T23:36:33.986Z,12.67
2019-05-30T23:39:05.282Z,11.30
2019-05-30T23:41:36.890Z,10.97
2019-05-30T23:44:11.422Z,11.10
2019-05-30T23:46:41.611Z,11.27
2019-05-30T23:49:11.631Z,12.10
2019-05-30T23:51:41.661Z,12.20
2019-05-30T23:54:11.680Z,11.50
2019-05-30T23:56:42.521Z,11.97
2019-05-30T23:59:12.699Z,12.30
